sensor_id;sensor_type;location;lat;lon;timestamp;P1;durP1;ratioP1;P2;durP2;ratioP2
26588;SDS011;14235;48.532;8.722;2023-03-01T00:00:37;18.07;;;13.13;;
26588;SDS011;14235;48.532;8.722;2023-03-01T00:03:03;17.67;;;13.33;;
26588;SDS011;14235;48.532;8.722;2023-03-01T00:05:28;16.97;;;12.23;;
26588;SDS011;14235;48.532;8.722;2023-03-01T00:07:54;19.90;;;12.90;;
26588;SDS011;14235;48.532;8.722;2023-03-01T00:10:19;18.27;;;13.57;;
26588;SDS011;14235;48.532;8.722;2023-03-01T00:12:45;15.50;;;12.40;;
26588;SDS011;14235;48.532;8.722;2023-03-01T00:15:11;16.83;;;12.83;;
26588;SDS011;14235;48.532;8.722;2023-03-01T00:17:36;17.83;;;12.90;;
26588;SDS011;14235;48.532;8.722;2023-03-01T00:20:02;18.53;;;12.87;;
26588;SDS011;14235;48.532;8.722;2023-03-01T00:22:28;16.77;;;13.30;;
26588;SDS011;14235;48.532;8.722;2023-03-01T00:24:54;17.33;;;12.67;;
26588;SDS011;14235;48.532;8.722;2023-03-01T00:27:19;16.53;;;12.23;;
26588;SDS011;14235;48.532;8.722;2023-03-01T00:29:45;16.17;;;12.70;;
26588;SDS011;14235;48.532;8.722;2023-03-01T00:32:10;18.57;;;12.90;;
26588;SDS011;14235;48.532;8.722;2023-03-01T00:34:37;17.30;;;11.70;;
26588;SDS011;14235;48.532;8.722;2023-03-01T00:37:03;18.13;;;13.00;;
26588;SDS011;14235;48.532;8.722;2023-03-01T00:39:30;18.43;;;13.20;;
26588;SDS011;14235;48.532;8.722;2023-03-01T00:41:57;19.17;;;12.97;;
26588;SDS011;14235;48.532;8.722;2023-03-01T00:44:23;16.30;;;12.13;;
26588;SDS011;14235;48.532;8.722;2023-03-01T00:46:48;16.97;;;12.53;;
26588;SDS011;14235;48.532;8.722;2023-03-01T00:49:14;15.47;;;11.97;;
26588;SDS011;14235;48.532;8.722;2023-03-01T00:51:39;18.20;;;11.60;;
26588;SDS011;14235;48.532;8.722;2023-03-01T00:54:07;17.97;;;13.27;;
26588;SDS011;14235;48.532;8.722;2023-03-01T00:56:33;16.33;;;12.57;;
26588;SDS011;14235;48.532;8.722;2023-03-01T00:58:59;17.23;;;13.17;;
26588;SDS011;14235;48.532;8.722;2023-03-01T01:01:26;16.43;;;12.67;;
26588;SDS011;14235;48.532;8.722;2023-03-01T01:03:56;15.67;;;11.83;;
26588;SDS011;14235;48.532;8.722;2023-03-01T01:06:25;19.33;;;12.97;;
26588;SDS011;14235;48.532;8.722;2023-03-01T01:08:55;17.90;;;12.53;;
26588;SDS011;14235;48.532;8.722;2023-03-01T01:11:21;18.93;;;13.10;;
26588;SDS011;14235;48.532;8.722;2023-03-01T01:13:49;18.43;;;12.30;;
26588;SDS011;14235;48.532;8.722;2023-03-01T01:16:15;16.33;;;13.23;;
26588;SDS011;14235;48.532;8.722;2023-03-01T01:18:42;17.97;;;12.40;;
26588;SDS011;14235;48.532;8.722;2023-03-01T01:21:09;17.27;;;12.87;;
26588;SDS011;14235;48.532;8.722;2023-03-01T01:23:39;19.90;;;12.30;;
26588;SDS011;14235;48.532;8.722;2023-03-01T01:26:07;18.47;;;12.53;;
26588;SDS011;14235;48.532;8.722;2023-03-01T01:28:35;17.00;;;12.20;;
26588;SDS011;14235;48.532;8.722;2023-03-01T01:31:01;16.80;;;11.60;;
26588;SDS011;14235;48.532;8.722;2023-03-01T01:33:27;15.87;;;12.10;;
26588;SDS011;14235;48.532;8.722;2023-03-01T01:35:52;16.93;;;12.53;;
26588;SDS011;14235;48.532;8.722;2023-03-01T01:38:18;17.10;;;12.50;;
26588;SDS011;14235;48.532;8.722;2023-03-01T01:40:45;18.37;;;12.37;;
26588;SDS011;14235;48.532;8.722;2023-03-01T01:43:20;14.97;;;12.20;;
26588;SDS011;14235;48.532;8.722;2023-03-01T01:45:48;15.80;;;12.20;;
26588;SDS011;14235;48.532;8.722;2023-03-01T01:48:16;17.70;;;12.27;;
26588;SDS011;14235;48.532;8.722;2023-03-01T01:50:51;17.93;;;12.40;;
26588;SDS011;14235;48.532;8.722;2023-03-01T01:53:25;17.27;;;12.07;;
26588;SDS011;14235;48.532;8.722;2023-03-01T01:55:52;18.23;;;12.37;;
26588;SDS011;14235;48.532;8.722;2023-03-01T01:58:22;17.03;;;12.77;;
26588;SDS011;14235;48.532;8.722;2023-03-01T02:00:49;16.87;;;12.07;;
26588;SDS011;14235;48.532;8.722;2023-03-01T02:03:17;16.63;;;12.00;;
26588;SDS011;14235;48.532;8.722;2023-03-01T02:08:26;17.33;;;12.07;;
26588;SDS011;14235;48.532;8.722;2023-03-01T02:10:55;18.90;;;12.60;;
26588;SDS011;14235;48.532;8.722;2023-03-01T02:13:21;16.70;;;12.20;;
26588;SDS011;14235;48.532;8.722;2023-03-01T02:15:47;16.83;;;12.50;;
26588;SDS011;14235;48.532;8.722;2023-03-01T02:18:14;17.67;;;12.67;;
26588;SDS011;14235;48.532;8.722;2023-03-01T02:23:23;17.27;;;12.37;;
26588;SDS011;14235;48.532;8.722;2023-03-01T02:28:33;18.57;;;12.30;;
26588;SDS011;14235;48.532;8.722;2023-03-01T02:31:06;19.00;;;12.00;;
26588;SDS011;14235;48.532;8.722;2023-03-01T02:33:51;16.47;;;12.20;;
26588;SDS011;14235;48.532;8.722;2023-03-01T02:36:22;17.30;;;12.77;;
26588;SDS011;14235;48.532;8.722;2023-03-01T02:38:51;15.97;;;11.93;;
26588;SDS011;14235;48.532;8.722;2023-03-01T02:41:20;16.17;;;11.93;;
26588;SDS011;14235;48.532;8.722;2023-03-01T02:43:48;16.60;;;11.77;;
26588;SDS011;14235;48.532;8.722;2023-03-01T02:46:16;16.47;;;11.50;;
26588;SDS011;14235;48.532;8.722;2023-03-01T02:48:45;16.60;;;11.80;;
26588;SDS011;14235;48.532;8.722;2023-03-01T02:51:17;16.50;;;12.07;;
26588;SDS011;14235;48.532;8.722;2023-03-01T02:56:45;15.27;;;11.67;;
26588;SDS011;14235;48.532;8.722;2023-03-01T02:59:15;14.87;;;11.33;;
26588;SDS011;14235;48.532;8.722;2023-03-01T03:01:44;17.67;;;12.47;;
26588;SDS011;14235;48.532;8.722;2023-03-01T03:04:11;15.90;;;11.73;;
26588;SDS011;14235;48.532;8.722;2023-03-01T03:06:42;17.57;;;11.83;;
26588;SDS011;14235;48.532;8.722;2023-03-01T03:09:09;17.37;;;12.27;;
26588;SDS011;14235;48.532;8.722;2023-03-01T03:11:34;17.13;;;11.67;;
26588;SDS011;14235;48.532;8.722;2023-03-01T03:14:01;16.80;;;11.90;;
26588;SDS011;14235;48.532;8.722;2023-03-01T03:16:27;17.17;;;11.63;;
26588;SDS011;14235;48.532;8.722;2023-03-01T03:18:54;16.20;;;11.80;;
26588;SDS011;14235;48.532;8.722;2023-03-01T03:21:30;15.83;;;11.17;;
26588;SDS011;14235;48.532;8.722;2023-03-01T03:23:57;15.80;;;11.37;;
26588;SDS011;14235;48.532;8.722;2023-03-01T03:26:23;17.73;;;12.80;;
26588;SDS011;14235;48.532;8.722;2023-03-01T03:28:49;14.63;;;11.37;;
26588;SDS011;14235;48.532;8.722;2023-03-01T03:31:14;18.03;;;11.30;;
26588;SDS011;14235;48.532;8.722;2023-03-01T03:33:40;15.20;;;11.17;;
26588;SDS011;14235;48.532;8.722;2023-03-01T03:36:06;15.40;;;11.97;;
26588;SDS011;14235;48.532;8.722;2023-03-01T03:38:38;14.83;;;11.10;;
26588;SDS011;14235;48.532;8.722;2023-03-01T03:41:06;15.93;;;11.63;;
26588;SDS011;14235;48.532;8.722;2023-03-01T03:43:34;15.93;;;11.17;;
26588;SDS011;14235;48.532;8.722;2023-03-01T03:46:01;14.67;;;11.23;;
26588;SDS011;14235;48.532;8.722;2023-03-01T03:48:30;16.47;;;11.23;;
26588;SDS011;14235;48.532;8.722;2023-03-01T03:51:00;18.60;;;11.73;;
26588;SDS011;14235;48.532;8.722;2023-03-01T03:53:26;16.27;;;11.90;;
26588;SDS011;14235;48.532;8.722;2023-03-01T03:55:54;15.77;;;11.73;;
26588;SDS011;14235;48.532;8.722;2023-03-01T03:58:21;17.33;;;12.87;;
26588;SDS011;14235;48.532;8.722;2023-03-01T04:00:49;16.53;;;12.07;;
26588;SDS011;14235;48.532;8.722;2023-03-01T04:03:23;17.80;;;12.53;;
26588;SDS011;14235;48.532;8.722;2023-03-01T04:05:50;14.33;;;11.30;;
26588;SDS011;14235;48.532;8.722;2023-03-01T04:08:20;15.17;;;11.90;;
26588;SDS011;14235;48.532;8.722;2023-03-01T04:10:48;15.43;;;11.60;;
26588;SDS011;14235;48.532;8.722;2023-03-01T04:13:16;18.57;;;12.13;;
26588;SDS011;14235;48.532;8.722;2023-03-01T04:15:44;16.23;;;12.33;;
26588;SDS011;14235;48.532;8.722;2023-03-01T04:18:15;14.33;;;11.40;;
26588;SDS011;14235;48.532;8.722;2023-03-01T04:20:43;17.23;;;11.70;;
26588;SDS011;14235;48.532;8.722;2023-03-01T04:25:49;14.80;;;10.57;;
26588;SDS011;14235;48.532;8.722;2023-03-01T04:28:31;15.30;;;11.23;;
26588;SDS011;14235;48.532;8.722;2023-03-01T04:31:05;15.33;;;11.33;;
26588;SDS011;14235;48.532;8.722;2023-03-01T04:33:40;14.70;;;11.07;;
26588;SDS011;14235;48.532;8.722;2023-03-01T04:36:16;17.90;;;12.10;;
26588;SDS011;14235;48.532;8.722;2023-03-01T04:38:43;18.37;;;12.33;;
26588;SDS011;14235;48.532;8.722;2023-03-01T04:41:12;16.33;;;12.60;;
26588;SDS011;14235;48.532;8.722;2023-03-01T04:43:38;15.47;;;11.80;;
26588;SDS011;14235;48.532;8.722;2023-03-01T04:46:04;16.27;;;11.80;;
26588;SDS011;14235;48.532;8.722;2023-03-01T04:48:35;15.03;;;12.03;;
26588;SDS011;14235;48.532;8.722;2023-03-01T04:51:02;15.50;;;11.37;;
26588;SDS011;14235;48.532;8.722;2023-03-01T04:53:28;17.30;;;11.60;;
26588;SDS011;14235;48.532;8.722;2023-03-01T04:55:55;15.80;;;12.17;;
26588;SDS011;14235;48.532;8.722;2023-03-01T04:58:24;16.63;;;12.33;;
26588;SDS011;14235;48.532;8.722;2023-03-01T05:00:51;17.17;;;11.43;;
26588;SDS011;14235;48.532;8.722;2023-03-01T05:03:18;15.90;;;12.17;;
26588;SDS011;14235;48.532;8.722;2023-03-01T05:05:45;15.97;;;12.10;;
26588;SDS011;14235;48.532;8.722;2023-03-01T05:08:12;17.33;;;11.77;;
26588;SDS011;14235;48.532;8.722;2023-03-01T05:10:45;17.23;;;12.33;;
26588;SDS011;14235;48.532;8.722;2023-03-01T05:13:16;16.43;;;12.37;;
26588;SDS011;14235;48.532;8.722;2023-03-01T05:15:55;15.43;;;11.63;;
26588;SDS011;14235;48.532;8.722;2023-03-01T05:18:23;18.87;;;11.83;;
26588;SDS011;14235;48.532;8.722;2023-03-01T05:20:53;17.23;;;11.50;;
26588;SDS011;14235;48.532;8.722;2023-03-01T05:23:21;15.50;;;11.90;;
26588;SDS011;14235;48.532;8.722;2023-03-01T05:25:47;18.00;;;12.30;;
26588;SDS011;14235;48.532;8.722;2023-03-01T05:28:14;17.17;;;12.73;;
26588;SDS011;14235;48.532;8.722;2023-03-01T05:30:39;17.07;;;12.33;;
26588;SDS011;14235;48.532;8.722;2023-03-01T05:33:06;17.83;;;12.50;;
26588;SDS011;14235;48.532;8.722;2023-03-01T05:35:38;19.50;;;12.97;;
26588;SDS011;14235;48.532;8.722;2023-03-01T05:38:06;15.53;;;12.37;;
26588;SDS011;14235;48.532;8.722;2023-03-01T05:40:32;15.47;;;11.87;;
26588;SDS011;14235;48.532;8.722;2023-03-01T05:42:58;17.43;;;12.63;;
26588;SDS011;14235;48.532;8.722;2023-03-01T05:45:25;19.07;;;13.17;;
26588;SDS011;14235;48.532;8.722;2023-03-01T05:47:51;17.93;;;12.00;;
26588;SDS011;14235;48.532;8.722;2023-03-01T05:50:27;18.37;;;12.87;;
26588;SDS011;14235;48.532;8.722;2023-03-01T05:52:58;15.37;;;11.77;;
26588;SDS011;14235;48.532;8.722;2023-03-01T05:55:30;20.67;;;13.33;;
26588;SDS011;14235;48.532;8.722;2023-03-01T05:58:00;19.23;;;13.50;;
26588;SDS011;14235;48.532;8.722;2023-03-01T06:00:27;20.20;;;13.13;;
26588;SDS011;14235;48.532;8.722;2023-03-01T06:02:54;18.67;;;12.97;;
26588;SDS011;14235;48.532;8.722;2023-03-01T06:05:20;17.13;;;12.37;;
26588;SDS011;14235;48.532;8.722;2023-03-01T06:07:47;17.80;;;13.10;;
26588;SDS011;14235;48.532;8.722;2023-03-01T06:10:13;19.87;;;13.27;;
26588;SDS011;14235;48.532;8.722;2023-03-01T06:12:40;20.80;;;13.43;;
26588;SDS011;14235;48.532;8.722;2023-03-01T06:15:07;18.40;;;13.57;;
26588;SDS011;14235;48.532;8.722;2023-03-01T06:17:37;18.53;;;13.67;;
26588;SDS011;14235;48.532;8.722;2023-03-01T06:20:06;17.20;;;12.57;;
26588;SDS011;14235;48.532;8.722;2023-03-01T06:22:36;19.77;;;13.67;;
26588;SDS011;14235;48.532;8.722;2023-03-01T06:25:02;19.50;;;14.10;;
26588;SDS011;14235;48.532;8.722;2023-03-01T06:27:28;16.23;;;12.37;;
26588;SDS011;14235;48.532;8.722;2023-03-01T06:29:53;19.83;;;13.30;;
26588;SDS011;14235;48.532;8.722;2023-03-01T06:32:19;19.17;;;13.03;;
26588;SDS011;14235;48.532;8.722;2023-03-01T06:34:45;19.27;;;14.20;;
26588;SDS011;14235;48.532;8.722;2023-03-01T06:37:10;21.07;;;13.60;;
26588;SDS011;14235;48.532;8.722;2023-03-01T06:39:36;21.33;;;13.43;;
26588;SDS011;14235;48.532;8.722;2023-03-01T06:42:02;18.97;;;13.40;;
26588;SDS011;14235;48.532;8.722;2023-03-01T06:44:28;18.23;;;13.50;;
26588;SDS011;14235;48.532;8.722;2023-03-01T06:46:53;17.93;;;13.20;;
26588;SDS011;14235;48.532;8.722;2023-03-01T06:49:19;19.33;;;14.60;;
26588;SDS011;14235;48.532;8.722;2023-03-01T06:51:45;18.70;;;14.13;;
26588;SDS011;14235;48.532;8.722;2023-03-01T06:54:11;22.17;;;13.37;;
26588;SDS011;14235;48.532;8.722;2023-03-01T06:56:37;20.50;;;13.47;;
26588;SDS011;14235;48.532;8.722;2023-03-01T06:59:02;18.57;;;13.87;;
26588;SDS011;14235;48.532;8.722;2023-03-01T07:01:29;22.03;;;14.33;;
26588;SDS011;14235;48.532;8.722;2023-03-01T07:03:54;18.33;;;13.87;;
26588;SDS011;14235;48.532;8.722;2023-03-01T07:06:20;19.50;;;14.13;;
26588;SDS011;14235;48.532;8.722;2023-03-01T07:08:46;20.93;;;14.47;;
26588;SDS011;14235;48.532;8.722;2023-03-01T07:11:12;19.90;;;14.60;;
26588;SDS011;14235;48.532;8.722;2023-03-01T07:13:38;21.53;;;14.60;;
26588;SDS011;14235;48.532;8.722;2023-03-01T07:16:04;24.40;;;14.50;;
26588;SDS011;14235;48.532;8.722;2023-03-01T07:18:30;19.77;;;13.90;;
26588;SDS011;14235;48.532;8.722;2023-03-01T07:20:55;18.30;;;13.43;;
26588;SDS011;14235;48.532;8.722;2023-03-01T07:23:21;20.50;;;14.50;;
26588;SDS011;14235;48.532;8.722;2023-03-01T07:25:53;19.20;;;14.43;;
26588;SDS011;14235;48.532;8.722;2023-03-01T07:28:19;21.13;;;15.23;;
26588;SDS011;14235;48.532;8.722;2023-03-01T07:30:47;25.07;;;16.33;;
26588;SDS011;14235;48.532;8.722;2023-03-01T07:33:12;24.20;;;17.10;;
26588;SDS011;14235;48.532;8.722;2023-03-01T07:35:38;25.53;;;17.03;;
26588;SDS011;14235;48.532;8.722;2023-03-01T07:38:03;25.57;;;17.57;;
26588;SDS011;14235;48.532;8.722;2023-03-01T07:40:29;29.03;;;20.40;;
26588;SDS011;14235;48.532;8.722;2023-03-01T07:42:55;28.60;;;19.13;;
26588;SDS011;14235;48.532;8.722;2023-03-01T07:45:21;26.33;;;17.57;;
26588;SDS011;14235;48.532;8.722;2023-03-01T07:47:47;25.40;;;17.77;;
26588;SDS011;14235;48.532;8.722;2023-03-01T07:50:12;25.17;;;17.30;;
26588;SDS011;14235;48.532;8.722;2023-03-01T07:52:38;24.20;;;16.10;;
26588;SDS011;14235;48.532;8.722;2023-03-01T07:55:04;23.30;;;17.00;;
26588;SDS011;14235;48.532;8.722;2023-03-01T07:57:30;23.80;;;16.47;;
26588;SDS011;14235;48.532;8.722;2023-03-01T07:59:56;24.20;;;16.43;;
26588;SDS011;14235;48.532;8.722;2023-03-01T08:02:22;25.90;;;16.53;;
26588;SDS011;14235;48.532;8.722;2023-03-01T08:04:47;23.33;;;16.67;;
26588;SDS011;14235;48.532;8.722;2023-03-01T08:07:13;23.03;;;16.90;;
26588;SDS011;14235;48.532;8.722;2023-03-01T08:09:39;21.47;;;16.43;;
26588;SDS011;14235;48.532;8.722;2023-03-01T08:12:04;23.47;;;16.83;;
26588;SDS011;14235;48.532;8.722;2023-03-01T08:14:31;22.73;;;16.17;;
26588;SDS011;14235;48.532;8.722;2023-03-01T08:16:57;23.13;;;15.80;;
26588;SDS011;14235;48.532;8.722;2023-03-01T08:19:22;21.63;;;15.30;;
26588;SDS011;14235;48.532;8.722;2023-03-01T08:21:48;21.90;;;15.70;;
26588;SDS011;14235;48.532;8.722;2023-03-01T08:24:13;24.33;;;16.53;;
26588;SDS011;14235;48.532;8.722;2023-03-01T08:26:39;22.97;;;14.60;;
26588;SDS011;14235;48.532;8.722;2023-03-01T08:29:04;23.27;;;16.00;;
26588;SDS011;14235;48.532;8.722;2023-03-01T08:31:37;22.93;;;15.20;;
26588;SDS011;14235;48.532;8.722;2023-03-01T08:34:06;26.20;;;16.03;;
26588;SDS011;14235;48.532;8.722;2023-03-01T08:36:37;24.93;;;16.20;;
26588;SDS011;14235;48.532;8.722;2023-03-01T08:39:06;23.03;;;15.63;;
26588;SDS011;14235;48.532;8.722;2023-03-01T08:41:33;22.60;;;15.67;;
26588;SDS011;14235;48.532;8.722;2023-03-01T08:43:59;22.50;;;15.70;;
26588;SDS011;14235;48.532;8.722;2023-03-01T08:46:28;21.13;;;15.37;;
26588;SDS011;14235;48.532;8.722;2023-03-01T08:48:56;28.23;;;17.13;;
26588;SDS011;14235;48.532;8.722;2023-03-01T08:51:22;22.43;;;16.23;;
26588;SDS011;14235;48.532;8.722;2023-03-01T08:53:48;24.03;;;16.23;;
26588;SDS011;14235;48.532;8.722;2023-03-01T08:56:14;22.67;;;16.37;;
26588;SDS011;14235;48.532;8.722;2023-03-01T08:58:43;24.00;;;16.90;;
26588;SDS011;14235;48.532;8.722;2023-03-01T09:01:11;23.03;;;16.07;;
26588;SDS011;14235;48.532;8.722;2023-03-01T09:03:38;22.60;;;15.73;;
26588;SDS011;14235;48.532;8.722;2023-03-01T09:06:04;23.37;;;16.20;;
26588;SDS011;14235;48.532;8.722;2023-03-01T09:08:34;23.93;;;16.20;;
26588;SDS011;14235;48.532;8.722;2023-03-01T09:11:06;22.43;;;16.07;;
26588;SDS011;14235;48.532;8.722;2023-03-01T09:13:34;22.37;;;16.23;;
26588;SDS011;14235;48.532;8.722;2023-03-01T09:16:00;23.93;;;16.37;;
26588;SDS011;14235;48.532;8.722;2023-03-01T09:18:28;22.47;;;16.30;;
26588;SDS011;14235;48.532;8.722;2023-03-01T09:21:00;23.37;;;16.37;;
26588;SDS011;14235;48.532;8.722;2023-03-01T09:23:36;25.90;;;16.60;;
26588;SDS011;14235;48.532;8.722;2023-03-01T09:26:04;21.57;;;16.13;;
26588;SDS011;14235;48.532;8.722;2023-03-01T09:28:38;21.47;;;16.53;;
26588;SDS011;14235;48.532;8.722;2023-03-01T09:31:05;22.43;;;16.33;;
26588;SDS011;14235;48.532;8.722;2023-03-01T09:33:31;23.67;;;16.20;;
26588;SDS011;14235;48.532;8.722;2023-03-01T09:35:58;20.47;;;15.83;;
26588;SDS011;14235;48.532;8.722;2023-03-01T09:38:28;22.53;;;16.03;;
26588;SDS011;14235;48.532;8.722;2023-03-01T09:40:55;18.90;;;14.93;;
26588;SDS011;14235;48.532;8.722;2023-03-01T09:46:19;25.60;;;16.73;;
26588;SDS011;14235;48.532;8.722;2023-03-01T09:48:57;24.87;;;17.13;;
26588;SDS011;14235;48.532;8.722;2023-03-01T09:51:31;25.00;;;17.53;;
26588;SDS011;14235;48.532;8.722;2023-03-01T09:53:58;23.07;;;16.23;;
26588;SDS011;14235;48.532;8.722;2023-03-01T09:58:59;21.57;;;16.23;;
26588;SDS011;14235;48.532;8.722;2023-03-01T10:01:34;20.13;;;15.83;;
26588;SDS011;14235;48.532;8.722;2023-03-01T10:09:52;22.17;;;16.13;;
26588;SDS011;14235;48.532;8.722;2023-03-01T10:12:19;23.23;;;16.70;;
26588;SDS011;14235;48.532;8.722;2023-03-01T10:18:12;18.40;;;15.03;;
26588;SDS011;14235;48.532;8.722;2023-03-01T10:20:28;22.47;;;16.83;;
26588;SDS011;14235;48.532;8.722;2023-03-01T10:23:07;20.80;;;15.63;;
26588;SDS011;14235;48.532;8.722;2023-03-01T10:25:43;25.03;;;17.20;;
26588;SDS011;14235;48.532;8.722;2023-03-01T10:28:40;19.27;;;15.20;;
26588;SDS011;14235;48.532;8.722;2023-03-01T10:31:22;21.23;;;15.50;;
26588;SDS011;14235;48.532;8.722;2023-03-01T10:33:54;21.37;;;16.13;;
26588;SDS011;14235;48.532;8.722;2023-03-01T10:36:21;21.00;;;15.37;;
26588;SDS011;14235;48.532;8.722;2023-03-01T10:38:54;21.87;;;16.27;;
26588;SDS011;14235;48.532;8.722;2023-03-01T10:41:23;22.23;;;16.33;;
26588;SDS011;14235;48.532;8.722;2023-03-01T10:43:54;20.30;;;15.33;;
26588;SDS011;14235;48.532;8.722;2023-03-01T10:49:20;21.27;;;15.60;;
26588;SDS011;14235;48.532;8.722;2023-03-01T10:51:48;21.07;;;15.43;;
26588;SDS011;14235;48.532;8.722;2023-03-01T10:54:27;18.63;;;14.80;;
26588;SDS011;14235;48.532;8.722;2023-03-01T10:56:59;20.58;;;15.50;;
26588;SDS011;14235;48.532;8.722;2023-03-01T10:59:30;20.30;;;15.73;;
26588;SDS011;14235;48.532;8.722;2023-03-01T11:02:02;23.13;;;15.37;;
26588;SDS011;14235;48.532;8.722;2023-03-01T11:04:37;22.93;;;15.53;;
26588;SDS011;14235;48.532;8.722;2023-03-01T11:07:03;20.97;;;15.47;;
26588;SDS011;14235;48.532;8.722;2023-03-01T11:09:32;20.30;;;15.03;;
26588;SDS011;14235;48.532;8.722;2023-03-01T11:12:05;20.83;;;14.13;;
26588;SDS011;14235;48.532;8.722;2023-03-01T11:14:46;20.57;;;14.17;;
26588;SDS011;14235;48.532;8.722;2023-03-01T11:20:00;19.80;;;15.30;;
26588;SDS011;14235;48.532;8.722;2023-03-01T11:22:29;17.20;;;14.37;;
26588;SDS011;14235;48.532;8.722;2023-03-01T11:24:57;19.58;;;15.82;;
26588;SDS011;14235;48.532;8.722;2023-03-01T11:27:33;19.55;;;14.85;;
26588;SDS011;14235;48.532;8.722;2023-03-01T11:30:20;18.20;;;14.60;;
26588;SDS011;14235;48.532;8.722;2023-03-01T11:35:34;17.10;;;14.10;;
26588;SDS011;14235;48.532;8.722;2023-03-01T11:38:16;20.55;;;14.57;;
26588;SDS011;14235;48.532;8.722;2023-03-01T11:40:44;17.52;;;14.18;;
26588;SDS011;14235;48.532;8.722;2023-03-01T11:49:39;18.35;;;14.38;;
26588;SDS011;14235;48.532;8.722;2023-03-01T11:52:14;19.52;;;14.40;;
26588;SDS011;14235;48.532;8.722;2023-03-01T11:55:30;19.00;;;14.75;;
26588;SDS011;14235;48.532;8.722;2023-03-01T12:01:07;20.08;;;14.38;;
26588;SDS011;14235;48.532;8.722;2023-03-01T12:07:01;18.48;;;14.15;;
26588;SDS011;14235;48.532;8.722;2023-03-01T12:09:52;19.08;;;14.23;;
26588;SDS011;14235;48.532;8.722;2023-03-01T12:18:29;19.10;;;14.77;;
26588;SDS011;14235;48.532;8.722;2023-03-01T12:21:17;18.27;;;14.80;;
26588;SDS011;14235;48.532;8.722;2023-03-01T12:27:23;21.67;;;14.68;;
26588;SDS011;14235;48.532;8.722;2023-03-01T12:29:34;18.45;;;14.32;;
26588;SDS011;14235;48.532;8.722;2023-03-01T12:34:39;17.20;;;13.77;;
26588;SDS011;14235;48.532;8.722;2023-03-01T12:39:41;17.73;;;14.35;;
26588;SDS011;14235;48.532;8.722;2023-03-01T12:42:11;19.58;;;13.98;;
26588;SDS011;14235;48.532;8.722;2023-03-01T12:45:01;19.17;;;15.02;;
26588;SDS011;14235;48.532;8.722;2023-03-01T12:47:53;17.55;;;13.85;;
26588;SDS011;14235;48.532;8.722;2023-03-01T12:50:47;19.13;;;14.15;;
26588;SDS011;14235;48.532;8.722;2023-03-01T12:53:25;19.27;;;14.70;;
26588;SDS011;14235;48.532;8.722;2023-03-01T12:55:54;16.63;;;13.93;;
26588;SDS011;14235;48.532;8.722;2023-03-01T12:58:42;18.45;;;14.40;;
26588;SDS011;14235;48.532;8.722;2023-03-01T13:04:24;16.17;;;14.27;;
26588;SDS011;14235;48.532;8.722;2023-03-01T13:07:25;19.40;;;15.02;;
26588;SDS011;14235;48.532;8.722;2023-03-01T13:17:47;18.80;;;14.85;;
26588;SDS011;14235;48.532;8.722;2023-03-01T13:20:19;17.02;;;14.20;;
26588;SDS011;14235;48.532;8.722;2023-03-01T13:23:02;19.48;;;14.63;;
26588;SDS011;14235;48.532;8.722;2023-03-01T13:25:34;17.58;;;14.70;;
26588;SDS011;14235;48.532;8.722;2023-03-01T13:30:45;19.60;;;14.30;;
26588;SDS011;14235;48.532;8.722;2023-03-01T13:35:52;16.33;;;14.10;;
26588;SDS011;14235;48.532;8.722;2023-03-01T13:41:14;20.70;;;14.45;;
26588;SDS011;14235;48.532;8.722;2023-03-01T13:43:42;18.95;;;14.38;;
26588;SDS011;14235;48.532;8.722;2023-03-01T13:46:20;18.52;;;13.98;;
26588;SDS011;14235;48.532;8.722;2023-03-01T13:48:50;17.23;;;13.60;;
26588;SDS011;14235;48.532;8.722;2023-03-01T13:51:20;17.40;;;14.27;;
26588;SDS011;14235;48.532;8.722;2023-03-01T13:53:52;16.63;;;14.07;;
26588;SDS011;14235;48.532;8.722;2023-03-01T13:59:04;17.05;;;14.05;;
26588;SDS011;14235;48.532;8.722;2023-03-01T14:01:38;19.23;;;14.30;;
26588;SDS011;14235;48.532;8.722;2023-03-01T14:06:47;20.23;;;14.80;;
26588;SDS011;14235;48.532;8.722;2023-03-01T14:14:45;16.70;;;14.18;;
26588;SDS011;14235;48.532;8.722;2023-03-01T14:20:18;15.35;;;12.85;;
26588;SDS011;14235;48.532;8.722;2023-03-01T14:22:44;15.80;;;13.50;;
26588;SDS011;14235;48.532;8.722;2023-03-01T14:25:21;15.80;;;13.13;;
26588;SDS011;14235;48.532;8.722;2023-03-01T14:27:52;15.77;;;13.52;;
26588;SDS011;14235;48.532;8.722;2023-03-01T14:30:21;14.77;;;13.27;;
26588;SDS011;14235;48.532;8.722;2023-03-01T14:32:56;17.45;;;14.40;;
26588;SDS011;14235;48.532;8.722;2023-03-01T14:35:24;16.63;;;13.13;;
26588;SDS011;14235;48.532;8.722;2023-03-01T14:37:50;14.13;;;12.63;;
26588;SDS011;14235;48.532;8.722;2023-03-01T14:40:21;15.52;;;13.48;;
26588;SDS011;14235;48.532;8.722;2023-03-01T14:42:48;15.88;;;13.75;;
26588;SDS011;14235;48.532;8.722;2023-03-01T14:45:14;21.17;;;14.93;;
26588;SDS011;14235;48.532;8.722;2023-03-01T14:47:39;16.45;;;14.25;;
26588;SDS011;14235;48.532;8.722;2023-03-01T14:50:09;14.95;;;12.88;;
26588;SDS011;14235;48.532;8.722;2023-03-01T14:52:56;15.93;;;13.75;;
26588;SDS011;14235;48.532;8.722;2023-03-01T14:58:02;17.13;;;12.80;;
26588;SDS011;14235;48.532;8.722;2023-03-01T15:00:30;17.42;;;12.77;;
26588;SDS011;14235;48.532;8.722;2023-03-01T15:03:00;18.20;;;13.10;;
26588;SDS011;14235;48.532;8.722;2023-03-01T15:05:34;18.08;;;14.95;;
26588;SDS011;14235;48.532;8.722;2023-03-01T15:08:02;19.58;;;15.02;;
26588;SDS011;14235;48.532;8.722;2023-03-01T15:10:31;17.63;;;14.57;;
26588;SDS011;14235;48.532;8.722;2023-03-01T15:13:11;18.27;;;14.57;;
26588;SDS011;14235;48.532;8.722;2023-03-01T15:15:38;18.40;;;15.57;;
26588;SDS011;14235;48.532;8.722;2023-03-01T15:18:16;19.33;;;15.18;;
26588;SDS011;14235;48.532;8.722;2023-03-01T15:20:41;19.45;;;15.43;;
26588;SDS011;14235;48.532;8.722;2023-03-01T15:23:16;19.27;;;15.27;;
26588;SDS011;14235;48.532;8.722;2023-03-01T15:25:46;18.83;;;15.48;;
26588;SDS011;14235;48.532;8.722;2023-03-01T15:28:15;20.42;;;15.75;;
26588;SDS011;14235;48.532;8.722;2023-03-01T15:30:45;20.95;;;16.33;;
26588;SDS011;14235;48.532;8.722;2023-03-01T15:33:27;22.77;;;16.25;;
26588;SDS011;14235;48.532;8.722;2023-03-01T15:35:56;18.73;;;15.40;;
26588;SDS011;14235;48.532;8.722;2023-03-01T15:38:31;21.10;;;16.58;;
26588;SDS011;14235;48.532;8.722;2023-03-01T15:41:00;20.42;;;16.58;;
26588;SDS011;14235;48.532;8.722;2023-03-01T15:44:29;18.35;;;15.60;;
26588;SDS011;14235;48.532;8.722;2023-03-01T15:49:17;18.33;;;15.65;;
26588;SDS011;14235;48.532;8.722;2023-03-01T15:51:57;22.23;;;15.82;;
26588;SDS011;14235;48.532;8.722;2023-03-01T15:54:24;21.17;;;16.33;;
26588;SDS011;14235;48.532;8.722;2023-03-01T15:56:51;20.42;;;15.55;;
26588;SDS011;14235;48.532;8.722;2023-03-01T15:59:17;19.95;;;15.48;;
26588;SDS011;14235;48.532;8.722;2023-03-01T16:01:43;17.27;;;15.27;;
26588;SDS011;14235;48.532;8.722;2023-03-01T16:04:13;21.15;;;15.93;;
26588;SDS011;14235;48.532;8.722;2023-03-01T16:06:45;17.60;;;14.75;;
26588;SDS011;14235;48.532;8.722;2023-03-01T16:09:12;19.85;;;15.45;;
26588;SDS011;14235;48.532;8.722;2023-03-01T16:11:37;17.48;;;14.70;;
26588;SDS011;14235;48.532;8.722;2023-03-01T16:14:04;16.88;;;14.18;;
26588;SDS011;14235;48.532;8.722;2023-03-01T16:16:30;20.05;;;15.25;;